This is the latest recevied weather packets stored in our database for station/object OE3PDB-3. If no packets are shown the sender has not sent any weather packets the latest 10 day(s).
| Time | Temp. | Humidity | Pressure | Rain* | Wind** | Luminosity | Snow |
|---|---|---|---|---|---|---|---|
| 1777627850 | 16.11° C | 37% | 1028 hPa | 0 mm | - | - | - |
| 1777627250 | 16.67° C | 36% | 1028.1 hPa | 0 mm | - | - | - |
| 1777626650 | 17.22° C | 36% | 1028.2 hPa | 0 mm | - | - | - |
| 1777626050 | 17.22° C | 35% | 1028.2 hPa | 0 mm | - | - | - |
| 1777625450 | 17.22° C | 34% | 1028.3 hPa | 0 mm | - | - | - |
| 1777624850 | 17.78° C | 35% | 1028.2 hPa | 0 mm | - | - | - |
| 1777624250 | 17.78° C | 36% | 1028.2 hPa | 0 mm | - | - | - |
| 1777623650 | 17.22° C | 39% | 1028.3 hPa | 0 mm | - | - | - |
| 1777623050 | 15.56° C | 38% | 1028.4 hPa | 0 mm | - | - | - |
| 1777622450 | 15° C | 39% | 1028.4 hPa | 0 mm | - | - | - |
| 1777621850 | 14.44° C | 38% | 1028.3 hPa | 0 mm | - | - | - |
| 1777621250 | 14.44° C | 38% | 1028.2 hPa | 0 mm | - | - | - |
| 1777620650 | 14.44° C | 38% | 1028.3 hPa | 0 mm | - | - | - |
| 1777620050 | 15° C | 37% | 1028.2 hPa | 0 mm | - | - | - |
| 1777619450 | 14.44° C | 38% | 1028.1 hPa | 0 mm | - | - | - |
| 1777618850 | 12.78° C | 41% | 1028 hPa | 0 mm | - | - | - |
| 1777618250 | 8.89° C | 47% | 1028 hPa | 0 mm | - | - | - |
| 1777617651 | 8.89° C | 44% | 1028 hPa | 0 mm | - | - | - |
| 1777617051 | 9.44° C | 44% | 1028 hPa | 0 mm | - | - | - |
| 1777616451 | 9.44° C | 46% | 1027.9 hPa | 0 mm | - | - | - |
| 1777615851 | 7.78° C | 46% | 1027.9 hPa | 0 mm | - | - | - |
| 1777615251 | 7.78° C | 46% | 1027.8 hPa | 0 mm | - | - | - |
| 1777614651 | 7.78° C | 46% | 1027.8 hPa | 0 mm | - | - | - |
| 1777614051 | 7.78° C | 46% | 1027.8 hPa | 0 mm | - | - | - |
| 1777613451 | 7.78° C | 47% | 1027.7 hPa | 0 mm | - | - | - |
* Rain latest hour (hover to see other rain measurements)
** Current wind speed in m/s (hover to see current wind gust speed)